Time;durP1;ratioP1;P1;durP2;ratioP2;P2;SDS_P1;SDS_P2;PMS_P1;PMS_P2;Temp;Humidity;BMP_temperature;BMP_pressure;BME280_temperature;BME280_humidity;BME280_pressure;Samples;Min_cycle;Max_cycle;Signal;HPM_P1;HPM_P2
2022/09/08 00:02:16;;;;;;;5.95;1.55;;;;;;;;;;4996409;28;20034;-71
2022/09/08 00:04:42;;;;;;;4.18;2.13;;;;;;;;;;4988877;28;20038;-71
2022/09/08 00:07:08;;;;;;;12.52;7.00;;;;;;;;;;4996241;28;20096;-71
2022/09/08 00:09:35;;;;;;;11.68;8.70;;;;;;;;;;4992714;28;20025;-71
2022/09/08 00:12:03;;;;;;;11.55;5.55;;;;;;;;;;4973299;28;20037;-71
2022/09/08 00:14:31;;;;;;;11.18;4.93;;;;;;;;;;4993067;28;20033;-71
2022/09/08 00:16:57;;;;;;;6.10;3.42;;;;;;;;;;4993689;28;20101;-71
2022/09/08 00:19:23;;;;;;;7.60;3.83;;;;;;;;;;4993699;28;20425;-71
2022/09/08 00:21:49;;;;;;;7.07;2.25;;;;;;;;;;4997865;28;20038;-71
2022/09/08 00:24:15;;;;;;;5.40;1.85;;;;;;;;;;4991106;28;20441;-72
2022/09/08 00:26:41;;;;;;;8.90;1.98;;;;;;;;;;4997085;28;20046;-72
2022/09/08 00:29:07;;;;;;;6.78;2.05;;;;;;;;;;4994096;28;20073;-71
2022/09/08 00:31:37;;;;;;;8.93;1.55;;;;;;;;;;4995491;28;20625;-71
2022/09/08 00:34:03;;;;;;;12.23;2.70;;;;;;;;;;4994306;28;20034;-71
2022/09/08 00:36:31;;;;;;;8.55;3.90;;;;;;;;;;4975290;28;20057;-71
2022/09/08 00:38:58;;;;;;;18.15;11.40;;;;;;;;;;4992742;28;20069;-71
2022/09/08 00:41:24;;;;;;;8.00;4.60;;;;;;;;;;4991705;28;20096;-71
2022/09/08 00:43:58;;;;;;;7.53;2.58;;;;;;;;;;4997032;28;20037;-71
2022/09/08 00:46:39;;;;;;;6.18;1.20;;;;;;;;;;4992967;28;20033;-71
2022/09/08 00:49:16;;;;;;;5.03;1.27;;;;;;;;;;4994117;28;20033;-71
2022/09/08 00:51:45;;;;;;;7.35;1.70;;;;;;;;;;4994652;28;20034;-71
2022/09/08 00:54:12;;;;;;;4.55;0.90;;;;;;;;;;4992627;28;20093;-71
2022/09/08 00:56:38;;;;;;;5.20;1.02;;;;;;;;;;4992043;28;20505;-71
2022/09/08 00:59:05;;;;;;;7.05;1.10;;;;;;;;;;4994423;28;20354;-71
2022/09/08 01:01:32;;;;;;;7.70;1.38;;;;;;;;;;4992899;28;20058;-71
2022/09/08 01:03:58;;;;;;;11.10;1.85;;;;;;;;;;4993509;28;20379;-71
2022/09/08 01:12:45;;;;;;;7.80;2.65;;;;;;;;;;4987297;28;20432;-71
2022/09/08 01:15:15;;;;;;;12.13;6.50;;;;;;;;;;4992513;28;20043;-71
2022/09/08 01:17:41;;;;;;;10.77;6.50;;;;;;;;;;4996998;28;20121;-71
2022/09/08 01:20:08;;;;;;;10.13;5.57;;;;;;;;;;4993984;28;20037;-71
2022/09/08 01:22:41;;;;;;;6.68;3.47;;;;;;;;;;5000391;28;20023;-71
2022/09/08 01:25:07;;;;;;;8.40;5.05;;;;;;;;;;4999308;28;20048;-71
2022/09/08 01:27:34;;;;;;;7.90;4.32;;;;;;;;;;4995790;28;20503;-71
2022/09/08 01:30:08;;;;;;;8.63;3.22;;;;;;;;;;4994905;28;20061;-71
2022/09/08 01:32:39;;;;;;;6.35;2.95;;;;;;;;;;4995205;28;20037;-71
2022/09/08 01:35:06;;;;;;;8.82;4.30;;;;;;;;;;4992264;28;20117;-71
2022/09/08 01:37:32;;;;;;;6.75;3.90;;;;;;;;;;4997587;28;20149;-71
2022/09/08 01:39:58;;;;;;;6.03;1.80;;;;;;;;;;4990743;28;20113;-71
2022/09/08 01:42:25;;;;;;;3.47;1.27;;;;;;;;;;5001434;28;20041;-71
2022/09/08 01:44:51;;;;;;;3.67;1.25;;;;;;;;;;4995534;28;20469;-71
2022/09/08 01:47:17;;;;;;;2.50;0.90;;;;;;;;;;4995121;28;20033;-71
2022/09/08 01:49:43;;;;;;;3.97;0.70;;;;;;;;;;4993522;28;20064;-71
2022/09/08 01:52:09;;;;;;;2.05;0.82;;;;;;;;;;4995272;28;20037;-71
2022/09/08 01:54:35;;;;;;;6.40;0.88;;;;;;;;;;4994873;28;20121;-71
2022/09/08 01:57:01;;;;;;;3.00;0.55;;;;;;;;;;4996538;28;20030;-71
2022/09/08 01:59:27;;;;;;;3.90;0.60;;;;;;;;;;4996146;28;20081;-71
2022/09/08 02:01:53;;;;;;;2.15;0.70;;;;;;;;;;4999166;28;20034;-72
2022/09/08 02:04:19;;;;;;;1.80;0.40;;;;;;;;;;4994505;28;20041;-71
2022/09/08 02:06:46;;;;;;;1.90;0.43;;;;;;;;;;4997046;28;20143;-72
2022/09/08 02:09:12;;;;;;;2.40;0.50;;;;;;;;;;4997847;28;20558;-72
2022/09/08 02:11:38;;;;;;;4.45;0.75;;;;;;;;;;4994796;28;20034;-71
2022/09/08 02:14:04;;;;;;;4.60;0.93;;;;;;;;;;4996102;28;20033;-72
2022/09/08 02:16:31;;;;;;;2.38;0.80;;;;;;;;;;4992286;28;20036;-72
2022/09/08 02:18:57;;;;;;;12.27;1.85;;;;;;;;;;4996300;28;20388;-72
2022/09/08 02:21:27;;;;;;;4.15;0.95;;;;;;;;;;4995312;28;20030;-72
2022/09/08 02:23:54;;;;;;;2.33;0.50;;;;;;;;;;5000759;28;20487;-72
2022/09/08 02:26:22;;;;;;;2.17;0.50;;;;;;;;;;4996643;28;20041;-72
2022/09/08 02:28:51;;;;;;;1.33;0.40;;;;;;;;;;5001977;28;20037;-73
2022/09/08 02:31:17;;;;;;;2.25;0.60;;;;;;;;;;4993034;28;20345;-72
2022/09/08 02:33:43;;;;;;;4.82;0.75;;;;;;;;;;4986213;28;20044;-72
2022/09/08 02:36:10;;;;;;;4.63;1.13;;;;;;;;;;4994741;28;20056;-71
2022/09/08 02:38:36;;;;;;;1.90;0.60;;;;;;;;;;4995351;28;20165;-72
2022/09/08 02:41:02;;;;;;;5.63;2.28;;;;;;;;;;4996296;28;20119;-72
2022/09/08 02:43:29;;;;;;;1.23;0.50;;;;;;;;;;4997248;28;20056;-72
2022/09/08 02:45:56;;;;;;;1.90;0.50;;;;;;;;;;4998470;28;20038;-72
2022/09/08 02:48:23;;;;;;;2.15;0.70;;;;;;;;;;4991872;28;20038;-72
2022/09/08 02:50:49;;;;;;;4.07;1.40;;;;;;;;;;4991625;28;20041;-72
2022/09/08 02:53:16;;;;;;;5.15;1.40;;;;;;;;;;4993760;28;20069;-72
2022/09/08 02:55:42;;;;;;;2.63;0.82;;;;;;;;;;4994736;28;20049;-72
2022/09/08 02:58:09;;;;;;;6.07;0.80;;;;;;;;;;4998258;28;20062;-72
2022/09/08 03:00:36;;;;;;;3.28;0.40;;;;;;;;;;4995415;28;20392;-72
2022/09/08 03:03:02;;;;;;;4.75;0.70;;;;;;;;;;4995851;28;20472;-72
2022/09/08 03:05:29;;;;;;;8.48;1.00;;;;;;;;;;4995087;28;20912;-71
2022/09/08 03:07:56;;;;;;;3.35;0.50;;;;;;;;;;4995775;28;20042;-72
2022/09/08 03:10:23;;;;;;;2.00;0.80;;;;;;;;;;4996105;28;20093;-72
2022/09/08 03:12:51;;;;;;;3.38;0.82;;;;;;;;;;4994761;28;20030;-72
2022/09/08 03:15:17;;;;;;;3.55;1.20;;;;;;;;;;5000049;28;20038;-72
2022/09/08 03:17:43;;;;;;;5.07;1.05;;;;;;;;;;4994777;28;20034;-72
2022/09/08 03:20:09;;;;;;;4.50;1.10;;;;;;;;;;5001114;28;20132;-72
2022/09/08 03:22:35;;;;;;;4.07;0.85;;;;;;;;;;4995669;28;20476;-72
2022/09/08 03:25:03;;;;;;;4.80;0.65;;;;;;;;;;4995229;28;20080;-71
2022/09/08 03:27:29;;;;;;;5.72;1.00;;;;;;;;;;4991985;28;20499;-72
2022/09/08 03:29:55;;;;;;;5.78;1.17;;;;;;;;;;4995288;28;20104;-71
2022/09/08 03:32:21;;;;;;;4.05;0.90;;;;;;;;;;4999255;28;20066;-71
2022/09/08 03:34:47;;;;;;;5.15;1.02;;;;;;;;;;4998493;28;20118;-73
2022/09/08 03:37:13;;;;;;;6.82;1.20;;;;;;;;;;4994526;28;20471;-72
2022/09/08 03:39:39;;;;;;;3.13;0.98;;;;;;;;;;4994652;28;20046;-72
2022/09/08 03:42:05;;;;;;;1.88;0.90;;;;;;;;;;4992544;28;20061;-72
2022/09/08 03:44:32;;;;;;;5.43;1.40;;;;;;;;;;4995604;28;20038;-72
2022/09/08 03:46:58;;;;;;;1.77;0.63;;;;;;;;;;4996828;28;20491;-72
2022/09/08 03:49:24;;;;;;;3.08;0.70;;;;;;;;;;4996918;28;20599;-72
2022/09/08 03:51:50;;;;;;;2.08;0.65;;;;;;;;;;4995757;28;20715;-72
2022/09/08 03:57:01;;;;;;;6.38;1.60;;;;;;;;;;4994862;28;20170;-72
2022/09/08 03:59:29;;;;;;;2.95;1.02;;;;;;;;;;4996370;28;20025;-72
2022/09/08 04:01:56;;;;;;;6.45;1.20;;;;;;;;;;4996333;28;20033;-72
2022/09/08 04:04:22;;;;;;;6.18;2.00;;;;;;;;;;4999449;28;20372;-72
2022/09/08 04:06:49;;;;;;;19.05;4.57;;;;;;;;;;4997889;28;20058;-72
2022/09/08 04:09:15;;;;;;;10.73;2.67;;;;;;;;;;4995827;28;20092;-71
2022/09/08 04:11:41;;;;;;;8.10;1.80;;;;;;;;;;4999338;28;20037;-71
2022/09/08 04:14:07;;;;;;;10.25;2.33;;;;;;;;;;4995560;28;20030;-71
2022/09/08 04:16:33;;;;;;;6.50;1.83;;;;;;;;;;4996060;28;20029;-71
2022/09/08 04:18:59;;;;;;;4.78;1.52;;;;;;;;;;4995827;28;20079;-71
2022/09/08 04:21:25;;;;;;;10.52;2.05;;;;;;;;;;4997491;28;20038;-71
2022/09/08 04:23:51;;;;;;;6.05;1.75;;;;;;;;;;4998535;28;20033;-71
2022/09/08 04:26:17;;;;;;;5.15;1.25;;;;;;;;;;5013853;23;20474;-71
2022/09/08 04:28:43;;;;;;;5.45;0.77;;;;;;;;;;4999528;28;20069;-71
2022/09/08 04:31:14;;;;;;;6.15;0.70;;;;;;;;;;5002043;28;20022;-71
2022/09/08 04:33:40;;;;;;;3.30;0.60;;;;;;;;;;5002914;28;20096;-71
2022/09/08 04:36:10;;;;;;;6.13;0.90;;;;;;;;;;4998510;28;20034;-72
2022/09/08 04:38:36;;;;;;;4.05;0.80;;;;;;;;;;5001381;28;20038;-72
2022/09/08 04:41:03;;;;;;;3.08;1.20;;;;;;;;;;5003174;28;20036;-71
2022/09/08 04:43:30;;;;;;;4.15;0.95;;;;;;;;;;4995995;28;20026;-71
2022/09/08 04:45:59;;;;;;;7.35;1.45;;;;;;;;;;5000959;28;20045;-71
2022/09/08 04:48:25;;;;;;;5.25;0.88;;;;;;;;;;4999685;28;20033;-72
2022/09/08 04:50:52;;;;;;;3.38;1.02;;;;;;;;;;4996728;28;20049;-71
2022/09/08 04:53:18;;;;;;;6.35;0.80;;;;;;;;;;5003194;28;20034;-71
2022/09/08 04:55:44;;;;;;;4.47;1.58;;;;;;;;;;5003564;28;20041;-71
2022/09/08 04:58:10;;;;;;;4.25;0.80;;;;;;;;;;5001258;28;20529;-71
2022/09/08 05:00:37;;;;;;;7.13;1.13;;;;;;;;;;5002064;28;20053;-71
2022/09/08 05:03:03;;;;;;;5.75;1.35;;;;;;;;;;4993746;28;20532;-72
2022/09/08 05:05:29;;;;;;;8.38;1.42;;;;;;;;;;4997167;28;20047;-71
2022/09/08 05:07:55;;;;;;;7.13;0.98;;;;;;;;;;5000248;28;20023;-71
2022/09/08 05:10:22;;;;;;;4.22;0.80;;;;;;;;;;4998362;28;20038;-71
2022/09/08 05:12:48;;;;;;;4.43;0.60;;;;;;;;;;4994176;28;20064;-71
2022/09/08 05:15:14;;;;;;;7.65;0.98;;;;;;;;;;5000779;28;20041;-71
2022/09/08 05:17:40;;;;;;;4.43;0.73;;;;;;;;;;4993298;28;20030;-71
2022/09/08 05:20:07;;;;;;;2.50;0.52;;;;;;;;;;5000596;28;20034;-71
2022/09/08 05:22:33;;;;;;;5.95;0.77;;;;;;;;;;5003100;28;20036;-71
2022/09/08 05:25:00;;;;;;;2.67;0.80;;;;;;;;;;4996897;28;20042;-71
2022/09/08 05:27:26;;;;;;;6.22;0.95;;;;;;;;;;4998611;28;20135;-71
2022/09/08 05:29:52;;;;;;;5.72;0.70;;;;;;;;;;4997566;28;20042;-71
2022/09/08 05:32:18;;;;;;;5.07;0.77;;;;;;;;;;5000974;28;20426;-71
2022/09/08 05:34:44;;;;;;;3.45;0.68;;;;;;;;;;5001478;28;20064;-72
2022/09/08 05:37:10;;;;;;;9.80;0.80;;;;;;;;;;5000348;28;20030;-72
2022/09/08 05:39:36;;;;;;;2.67;0.52;;;;;;;;;;4999016;28;20534;-71
2022/09/08 05:42:02;;;;;;;3.47;0.50;;;;;;;;;;5002113;28;20030;-71
2022/09/08 05:44:28;;;;;;;5.25;0.60;;;;;;;;;;5000791;28;20419;-71
2022/09/08 05:46:54;;;;;;;2.78;0.52;;;;;;;;;;4997664;28;20038;-71
2022/09/08 05:49:20;;;;;;;3.13;0.50;;;;;;;;;;5000662;28;20080;-71
2022/09/08 05:51:46;;;;;;;4.80;0.60;;;;;;;;;;4996957;28;20092;-72
2022/09/08 05:54:12;;;;;;;4.28;0.52;;;;;;;;;;5000172;28;20034;-71
2022/09/08 05:56:38;;;;;;;3.55;0.60;;;;;;;;;;5002450;28;20440;-71
2022/09/08 05:59:04;;;;;;;4.20;0.88;;;;;;;;;;5000221;28;20041;-71
2022/09/08 06:01:31;;;;;;;4.75;0.93;;;;;;;;;;5004171;28;20109;-71
2022/09/08 06:03:59;;;;;;;8.00;1.40;;;;;;;;;;5003697;28;20479;-71
2022/09/08 06:06:25;;;;;;;6.47;1.48;;;;;;;;;;5002618;28;20037;-71
2022/09/08 06:08:52;;;;;;;4.90;1.20;;;;;;;;;;5003968;28;20042;-71
2022/09/08 06:11:18;;;;;;;3.42;1.38;;;;;;;;;;5005162;28;20828;-72
2022/09/08 06:13:44;;;;;;;8.68;2.40;;;;;;;;;;5002061;28;20045;-71
2022/09/08 06:16:11;;;;;;;5.78;2.38;;;;;;;;;;5003982;28;20112;-71
2022/09/08 06:18:38;;;;;;;9.90;3.03;;;;;;;;;;5001781;28;20053;-72
2022/09/08 06:21:09;;;;;;;9.18;3.50;;;;;;;;;;5004997;28;20437;-71
2022/09/08 06:23:36;;;;;;;5.18;1.85;;;;;;;;;;5003619;28;20038;-71
2022/09/08 06:26:19;;;;;;;6.70;1.50;;;;;;;;;;5004154;28;20057;-71
2022/09/08 06:28:53;;;;;;;4.10;1.25;;;;;;;;;;5001431;28;20502;-71
2022/09/08 06:31:26;;;;;;;10.73;3.50;;;;;;;;;;5003288;28;20092;-72
2022/09/08 06:33:53;;;;;;;12.10;3.00;;;;;;;;;;4999325;28;20060;-71
2022/09/08 06:36:24;;;;;;;7.50;4.05;;;;;;;;;;4999900;28;20034;-72
2022/09/08 06:39:06;;;;;;;11.32;5.75;;;;;;;;;;5003050;28;20029;-71
2022/09/08 06:41:39;;;;;;;9.05;6.43;;;;;;;;;;4997803;28;20034;-71
2022/09/08 06:44:10;;;;;;;7.85;2.80;;;;;;;;;;5002401;28;20037;-71
2022/09/08 06:46:38;;;;;;;10.70;2.30;;;;;;;;;;5005423;28;20092;-71
2022/09/08 06:49:04;;;;;;;10.48;4.13;;;;;;;;;;5001515;28;20387;-72
2022/09/08 06:51:48;;;;;;;7.88;2.10;;;;;;;;;;4998531;28;20108;-72
2022/09/08 06:54:33;;;;;;;4.30;0.60;;;;;;;;;;5000080;28;20041;-71
2022/09/08 06:57:05;;;;;;;2.13;0.50;;;;;;;;;;5001513;28;20049;-71
2022/09/08 06:59:50;;;;;;;5.15;1.20;;;;;;;;;;5001168;28;20061;-71
2022/09/08 07:02:18;;;;;;;4.60;1.08;;;;;;;;;;4999452;28;20846;-72
2022/09/08 07:04:50;;;;;;;3.58;0.80;;;;;;;;;;5002354;28;20183;-72
2022/09/08 07:07:16;;;;;;;;;;;;;;;;;;5002572;28;20112;-71
2022/09/08 07:10:01;;;;;;;7.78;1.63;;;;;;;;;;4998203;28;20113;-72
2022/09/08 07:12:42;;;;;;;4.07;1.38;;;;;;;;;;5002582;28;20584;-71
2022/09/08 07:15:18;;;;;;;4.45;0.70;;;;;;;;;;5000116;28;20117;-71
2022/09/08 07:18:03;;;;;;;6.82;1.10;;;;;;;;;;4998422;28;20066;-71
2022/09/08 07:20:29;;;;;;;4.85;0.95;;;;;;;;;;4999970;28;20028;-71
2022/09/08 07:23:01;;;;;;;5.13;0.70;;;;;;;;;;5001164;28;20037;-72
2022/09/08 07:25:35;;;;;;;4.38;1.00;;;;;;;;;;5000181;28;20038;-71
2022/09/08 07:28:04;;;;;;;3.40;1.30;;;;;;;;;;4998337;28;20045;-71
2022/09/08 07:30:30;;;;;;;5.13;1.65;;;;;;;;;;5002122;28;20038;-71
2022/09/08 07:33:06;;;;;;;2.45;0.55;;;;;;;;;;5001061;28;20689;-72
2022/09/08 07:35:38;;;;;;;11.07;0.98;;;;;;;;;;4998814;28;20034;-71
2022/09/08 07:38:04;;;;;;;;;;;;;;;;;;5000432;28;20033;-72
2022/09/08 07:40:33;;;;;;;1.27;0.40;;;;;;;;;;5000953;28;20476;-72
2022/09/08 07:42:59;;;;;;;2.65;0.40;;;;;;;;;;5000287;28;20144;-72
2022/09/08 07:45:31;;;;;;;2.63;0.30;;;;;;;;;;4999471;28;20038;-72
2022/09/08 07:48:03;;;;;;;2.00;0.40;;;;;;;;;;5001678;28;20033;-72
2022/09/08 07:50:53;;;;;;;;;;;;;;;;;;4999798;28;20515;-72
2022/09/08 07:53:25;;;;;;;5.13;0.57;;;;;;;;;;4998725;28;19913;-72
2022/09/08 07:55:53;;;;;;;5.15;0.82;;;;;;;;;;4999112;28;20026;-72
2022/09/08 07:58:30;;;;;;;6.05;0.63;;;;;;;;;;5000080;28;20036;-72
2022/09/08 08:01:15;;;;;;;2.45;0.40;;;;;;;;;;4993782;28;20026;-72
2022/09/08 08:03:45;;;;;;;3.13;0.50;;;;;;;;;;4999962;28;20069;-71
2022/09/08 08:06:11;;;;;;;7.78;0.50;;;;;;;;;;4998086;28;20471;-72
2022/09/08 08:08:37;;;;;;;5.00;0.65;;;;;;;;;;4997505;28;20041;-72
2022/09/08 08:11:03;;;;;;;3.50;0.80;;;;;;;;;;4998638;28;20034;-72
2022/09/08 08:13:50;;;;;;;3.03;0.63;;;;;;;;;;5001594;28;20144;-72
2022/09/08 08:16:21;;;;;;;4.43;0.88;;;;;;;;;;4997185;28;20033;-71
2022/09/08 08:18:54;;;;;;;4.90;0.70;;;;;;;;;;5000622;28;20356;-72
2022/09/08 08:21:26;;;;;;;6.65;1.00;;;;;;;;;;5000794;28;20030;-72
2022/09/08 08:24:04;;;;;;;1.45;0.40;;;;;;;;;;4996450;28;20486;-72
2022/09/08 08:26:36;;;;;;;4.15;0.57;;;;;;;;;;5001165;28;20089;-72
2022/09/08 08:29:19;;;;;;;1.65;0.32;;;;;;;;;;5001768;28;20824;-72
2022/09/08 08:31:49;;;;;;;3.03;0.63;;;;;;;;;;5003500;28;20144;-72
2022/09/08 08:34:36;;;;;;;3.25;0.50;;;;;;;;;;5000058;28;20475;-72
2022/09/08 08:37:04;;;;;;;8.13;0.80;;;;;;;;;;4997896;28;20132;-72
2022/09/08 08:39:31;;;;;;;8.50;0.70;;;;;;;;;;5001607;28;20026;-71
2022/09/08 08:42:03;;;;;;;2.30;0.60;;;;;;;;;;4998795;28;20535;-72
2022/09/08 08:44:35;;;;;;;4.10;0.50;;;;;;;;;;4996340;28;20058;-72
2022/09/08 08:47:01;;;;;;;;;;;;;;;;;;4997288;28;20030;-72
2022/09/08 08:49:27;;;;;;;6.07;0.70;;;;;;;;;;5000822;28;20578;-72
2022/09/08 08:51:58;;;;;;;4.07;0.93;;;;;;;;;;4997573;28;20044;-72
2022/09/08 08:54:24;;;;;;;4.68;0.60;;;;;;;;;;4994987;28;20495;-72
2022/09/08 08:57:06;;;;;;;4.53;0.90;;;;;;;;;;4999770;28;20061;-72
2022/09/08 08:59:32;;;;;;;4.28;0.47;;;;;;;;;;4996119;28;20026;-72
2022/09/08 09:02:10;;;;;;;3.35;0.40;;;;;;;;;;4997710;28;20439;-72
2022/09/08 09:04:48;;;;;;;4.97;0.40;;;;;;;;;;4999722;28;20029;-72
2022/09/08 09:07:33;;;;;;;8.40;0.63;;;;;;;;;;4999640;28;20029;-72
2022/09/08 09:10:14;;;;;;;2.70;0.60;;;;;;;;;;5000267;28;20069;-72
2022/09/08 09:12:40;;;;;;;2.60;0.50;;;;;;;;;;5000785;28;20096;-72
2022/09/08 09:15:25;;;;;;;2.47;0.50;;;;;;;;;;5001323;28;20562;-72
2022/09/08 09:17:51;;;;;;;2.72;0.60;;;;;;;;;;5001941;28;20125;-72
2022/09/08 09:20:27;;;;;;;4.80;0.50;;;;;;;;;;4999556;28;20040;-72
2022/09/08 09:23:11;;;;;;;4.00;0.57;;;;;;;;;;5001571;28;20034;-72
2022/09/08 09:25:42;;;;;;;1.65;0.50;;;;;;;;;;5000108;28;20140;-72
2022/09/08 09:28:17;;;;;;;2.10;0.50;;;;;;;;;;4999207;28;20041;-72
2022/09/08 09:31:11;;;;;;;3.15;0.50;;;;;;;;;;4999073;28;20049;-72
2022/09/08 09:33:53;;;;;;;1.95;0.50;;;;;;;;;;5000499;28;20117;-72
2022/09/08 09:36:18;;;;;;;3.77;0.73;;;;;;;;;;5000762;28;20026;-72
2022/09/08 09:38:48;;;;;;;4.32;0.70;;;;;;;;;;5006583;28;20765;-72
2022/09/08 09:41:14;;;;;;;2.08;0.50;;;;;;;;;;5001963;28;20038;-72
2022/09/08 09:43:58;;;;;;;1.45;0.50;;;;;;;;;;5005073;28;20519;-72
2022/09/08 09:46:33;;;;;;;5.72;0.60;;;;;;;;;;5002726;28;20045;-72
2022/09/08 09:49:22;;;;;;;5.70;0.77;;;;;;;;;;5002444;28;20038;-72
2022/09/08 09:51:55;;;;;;;4.50;0.95;;;;;;;;;;5001213;28;20043;-72
2022/09/08 09:54:21;;;;;;;3.53;0.88;;;;;;;;;;5002316;28;20061;-72
2022/09/08 09:57:00;;;;;;;3.75;0.55;;;;;;;;;;5001712;28;20034;-72
2022/09/08 09:59:31;;;;;;;5.97;0.90;;;;;;;;;;5003229;28;20101;-72
2022/09/08 10:02:00;;;;;;;7.53;1.10;;;;;;;;;;5002338;28;20494;-72
2022/09/08 10:04:45;;;;;;;7.00;1.58;;;;;;;;;;5002119;28;20105;-72
2022/09/08 10:07:23;;;;;;;3.28;0.70;;;;;;;;;;4998233;28;20045;-72
2022/09/08 10:09:55;;;;;;;3.63;0.52;;;;;;;;;;5005276;28;20049;-72
2022/09/08 10:12:21;;;;;;;4.72;0.60;;;;;;;;;;4998561;28;20030;-71
2022/09/08 10:14:54;;;;;;;2.15;0.40;;;;;;;;;;5006005;28;20033;-71
2022/09/08 10:17:48;;;;;;;5.18;0.80;;;;;;;;;;5000998;28;20034;-71
2022/09/08 10:20:35;;;;;;;6.53;0.65;;;;;;;;;;5001978;28;20034;-71
2022/09/08 10:23:24;;;;;;;3.80;0.70;;;;;;;;;;5003766;28;20116;-71
2022/09/08 10:26:01;;;;;;;3.60;0.50;;;;;;;;;;4966099;28;20050;-71
2022/09/08 10:28:30;;;;;;;2.42;0.60;;;;;;;;;;5000534;28;20041;-71
2022/09/08 10:30:56;;;;;;;2.40;0.68;;;;;;;;;;5003065;28;20037;-71
2022/09/08 10:33:25;;;;;;;4.78;0.90;;;;;;;;;;5001823;28;20034;-71
2022/09/08 10:36:10;;;;;;;4.82;0.95;;;;;;;;;;5004472;28;20483;-71
2022/09/08 10:38:55;;;;;;;2.70;0.70;;;;;;;;;;4998597;28;20693;-71
2022/09/08 10:41:40;;;;;;;3.75;0.80;;;;;;;;;;5003438;28;20077;-72
2022/09/08 10:44:09;;;;;;;3.97;0.60;;;;;;;;;;5002045;28;20044;-71
2022/09/08 10:46:54;;;;;;;5.57;0.70;;;;;;;;;;4999478;28;20088;-71
2022/09/08 10:49:19;;;;;;;5.68;0.90;;;;;;;;;;4998978;28;20041;-71
2022/09/08 10:51:55;;;;;;;4.65;0.65;;;;;;;;;;5003520;28;20037;-71
2022/09/08 10:54:21;;;;;;;3.05;0.60;;;;;;;;;;5001599;28;20130;-72
2022/09/08 10:56:48;;;;;;;3.88;0.57;;;;;;;;;;5000826;28;20021;-72
2022/09/08 10:59:32;;;;;;;3.88;0.60;;;;;;;;;;5000406;28;20554;-72
2022/09/08 11:02:05;;;;;;;5.68;0.73;;;;;;;;;;5003290;28;20081;-72
2022/09/08 11:04:40;;;;;;;5.03;0.80;;;;;;;;;;4999546;28;20029;-72
2022/09/08 11:07:12;;;;;;;5.68;1.00;;;;;;;;;;4998076;28;20033;-72
2022/09/08 11:09:38;;;;;;;3.83;0.68;;;;;;;;;;4998625;28;20038;-71
2022/09/08 11:12:08;;;;;;;4.30;0.77;;;;;;;;;;4999074;28;20026;-72
2022/09/08 11:14:43;;;;;;;3.92;0.80;;;;;;;;;;4997672;28;20030;-73
2022/09/08 11:17:17;;;;;;;3.55;0.65;;;;;;;;;;5004283;28;20383;-72
2022/09/08 11:19:46;;;;;;;2.60;0.60;;;;;;;;;;4998322;28;20120;-72
2022/09/08 11:22:12;;;;;;;2.83;0.50;;;;;;;;;;4998399;28;20113;-71
2022/09/08 11:24:54;;;;;;;4.35;0.68;;;;;;;;;;5003174;28;20109;-72
2022/09/08 11:27:20;;;;;;;;;;;;;;;;;;4999792;28;20054;-71
2022/09/08 11:29:53;;;;;;;5.00;1.10;;;;;;;;;;5004338;28;20504;-72
2022/09/08 11:32:22;;;;;;;6.05;0.80;;;;;;;;;;4999259;28;20038;-72
2022/09/08 11:35:00;;;;;;;4.72;0.60;;;;;;;;;;5002968;28;20041;-71
2022/09/08 11:37:39;;;;;;;4.93;0.73;;;;;;;;;;5000772;28;20112;-72
2022/09/08 11:40:17;;;;;;;3.72;0.65;;;;;;;;;;5000804;28;20253;-72
2022/09/08 11:42:43;;;;;;;3.47;0.60;;;;;;;;;;5002285;28;20779;-71
2022/09/08 11:45:09;;;;;;;4.85;0.90;;;;;;;;;;5001511;28;20038;-72
2022/09/08 11:47:52;;;;;;;5.07;0.65;;;;;;;;;;5001512;28;20030;-71
2022/09/08 11:50:21;;;;;;;4.28;0.70;;;;;;;;;;4999744;28;20779;-72
2022/09/08 11:52:50;;;;;;;3.75;0.80;;;;;;;;;;4998051;28;20096;-72
2022/09/08 11:55:39;;;;;;;5.45;0.75;;;;;;;;;;5000370;28;20387;-72
2022/09/08 11:58:21;;;;;;;3.75;0.68;;;;;;;;;;4992631;28;20587;-72
2022/09/08 12:01:06;;;;;;;2.90;0.57;;;;;;;;;;5003443;28;20030;-72
2022/09/08 12:03:35;;;;;;;1.98;0.50;;;;;;;;;;4995895;28;20038;-72
2022/09/08 12:06:20;;;;;;;3.42;0.50;;;;;;;;;;4997828;28;20058;-72
2022/09/08 12:09:05;;;;;;;4.15;0.70;;;;;;;;;;4998781;28;20029;-71
2022/09/08 12:11:50;;;;;;;2.25;0.52;;;;;;;;;;5002506;28;20036;-71
2022/09/08 12:14:25;;;;;;;5.10;0.80;;;;;;;;;;4997649;28;20233;-72
2022/09/08 12:16:57;;;;;;;1.85;0.40;;;;;;;;;;5000934;28;20038;-72
2022/09/08 12:19:23;;;;;;;3.47;0.73;;;;;;;;;;4999918;28;20495;-72
2022/09/08 12:21:55;;;;;;;3.88;0.80;;;;;;;;;;4997238;28;20034;-72
2022/09/08 12:24:21;;;;;;;3.55;0.50;;;;;;;;;;4999449;28;20149;-72
2022/09/08 12:26:47;;;;;;;3.70;0.82;;;;;;;;;;5001366;28;20045;-71
2022/09/08 12:29:32;;;;;;;3.22;0.60;;;;;;;;;;5000026;28;20146;-72
2022/09/08 12:32:19;;;;;;;7.03;0.90;;;;;;;;;;4997427;28;20034;-72
2022/09/08 12:34:48;;;;;;;4.45;0.60;;;;;;;;;;4996919;28;20053;-72
2022/09/08 12:37:20;;;;;;;7.53;1.40;;;;;;;;;;5002166;28;20030;-72
2022/09/08 12:40:05;;;;;;;4.45;0.80;;;;;;;;;;4997707;28;20117;-72
2022/09/08 12:42:54;;;;;;;2.80;0.45;;;;;;;;;;5000734;28;20033;-71
2022/09/08 12:45:26;;;;;;;2.50;0.60;;;;;;;;;;5001254;28;20045;-72
2022/09/08 12:48:02;;;;;;;2.58;0.50;;;;;;;;;;5000687;28;20848;-72
2022/09/08 12:50:31;;;;;;;2.88;0.70;;;;;;;;;;5001213;28;20034;-72
2022/09/08 12:53:16;;;;;;;2.63;0.60;;;;;;;;;;4999321;28;20045;-72
2022/09/08 12:55:46;;;;;;;5.63;0.80;;;;;;;;;;5000495;28;20045;-72
2022/09/08 12:58:19;;;;;;;4.07;0.55;;;;;;;;;;4998012;28;20479;-72
2022/09/08 13:00:55;;;;;;;2.38;0.70;;;;;;;;;;5000856;28;20044;-72
2022/09/08 13:03:25;;;;;;;4.20;0.70;;;;;;;;;;4997064;28;20036;-72
2022/09/08 13:06:11;;;;;;;5.90;0.93;;;;;;;;;;4999594;28;20041;-72
2022/09/08 13:08:40;;;;;;;2.30;0.60;;;;;;;;;;4998969;28;20026;-71
2022/09/08 13:11:18;;;;;;;5.53;0.70;;;;;;;;;;4999298;28;20030;-71
2022/09/08 13:13:48;;;;;;;3.55;0.80;;;;;;;;;;4997334;28;20038;-71
2022/09/08 13:16:14;;;;;;;3.60;0.70;;;;;;;;;;4999303;28;20030;-71
2022/09/08 13:19:06;;;;;;;3.92;0.63;;;;;;;;;;4995670;28;20113;-71
2022/09/08 13:21:41;;;;;;;3.85;0.60;;;;;;;;;;4978626;28;20046;-71
2022/09/08 13:24:10;;;;;;;3.72;0.60;;;;;;;;;;4996172;28;20438;-71
2022/09/08 13:27:00;;;;;;;4.25;0.80;;;;;;;;;;4999988;28;20499;-71
2022/09/08 13:29:33;;;;;;;5.10;0.50;;;;;;;;;;4953175;28;20042;-71
2022/09/08 13:32:15;;;;;;;4.93;0.65;;;;;;;;;;4999676;28;20117;-72
2022/09/08 13:34:41;;;;;;;;;;;;;;;;;;4998466;28;20041;-71
2022/09/08 13:37:13;;;;;;;4.35;0.63;;;;;;;;;;5000006;28;20330;-71
2022/09/08 13:39:42;;;;;;;4.93;0.88;;;;;;;;;;4998104;28;20030;-71
2022/09/08 13:42:29;;;;;;;4.80;0.82;;;;;;;;;;4996097;28;20049;-71
2022/09/08 13:45:25;;;;;;;2.58;0.63;;;;;;;;;;4997193;28;20052;-71
2022/09/08 13:47:58;;;;;;;5.95;0.70;;;;;;;;;;4930816;28;20577;-71
2022/09/08 13:50:37;;;;;;;2.95;0.68;;;;;;;;;;4997919;28;20061;-71
2022/09/08 13:53:22;;;;;;;1.88;0.50;;;;;;;;;;5003056;28;20041;-72
2022/09/08 13:56:01;;;;;;;2.35;0.40;;;;;;;;;;4996713;28;20162;-71
2022/09/08 13:58:32;;;;;;;4.72;0.70;;;;;;;;;;4994465;28;20074;-71
2022/09/08 14:01:10;;;;;;;5.22;0.50;;;;;;;;;;4994382;28;20049;-72
2022/09/08 14:03:49;;;;;;;2.20;0.70;;;;;;;;;;4999768;28;20030;-72
2022/09/08 14:06:17;;;;;;;3.42;0.75;;;;;;;;;;4995023;28;20034;-72
2022/09/08 14:08:55;;;;;;;2.80;0.52;;;;;;;;;;4997870;28;20034;-71
2022/09/08 14:11:46;;;;;;;3.63;0.57;;;;;;;;;;4994775;28;20038;-72
2022/09/08 14:14:24;;;;;;;3.13;0.60;;;;;;;;;;4996642;28;20026;-71
2022/09/08 14:16:52;;;;;;;2.83;0.60;;;;;;;;;;4999194;28;20121;-72
2022/09/08 14:19:18;;;;;;;4.05;0.77;;;;;;;;;;4997872;28;20018;-71
2022/09/08 14:21:47;;;;;;;8.50;0.82;;;;;;;;;;4998849;28;20038;-71
2022/09/08 14:24:13;;;;;;;3.92;0.50;;;;;;;;;;5000879;28;20030;-72
2022/09/08 14:26:49;;;;;;;3.30;0.70;;;;;;;;;;5004969;28;20054;-72
2022/09/08 14:29:15;;;;;;;3.90;0.80;;;;;;;;;;5002491;28;20030;-72
2022/09/08 14:31:44;;;;;;;3.03;0.52;;;;;;;;;;5002469;28;20057;-72
2022/09/08 14:34:17;;;;;;;3.22;0.57;;;;;;;;;;5003393;28;20030;-72
2022/09/08 14:36:55;;;;;;;3.72;0.50;;;;;;;;;;5003096;28;20489;-73
2022/09/08 14:39:27;;;;;;;5.50;0.70;;;;;;;;;;5001334;28;20459;-73
2022/09/08 14:41:55;;;;;;;2.95;0.40;;;;;;;;;;5000225;28;20046;-72
2022/09/08 14:44:24;;;;;;;6.00;1.10;;;;;;;;;;4998552;28;20041;-72
2022/09/08 14:46:52;;;;;;;3.63;0.75;;;;;;;;;;5003550;28;20590;-72
2022/09/08 14:49:18;;;;;;;3.67;0.70;;;;;;;;;;4998559;28;20037;-72
2022/09/08 14:52:11;;;;;;;2.75;0.60;;;;;;;;;;5000657;28;20410;-72
2022/09/08 14:54:41;;;;;;;5.80;0.77;;;;;;;;;;4983587;28;20125;-73
2022/09/08 14:57:19;;;;;;;8.52;0.82;;;;;;;;;;5004383;28;20036;-72
2022/09/08 14:59:54;;;;;;;4.57;0.88;;;;;;;;;;4995547;28;20125;-71
2022/09/08 15:02:25;;;;;;;6.22;0.82;;;;;;;;;;4997033;28;20029;-72
2022/09/08 15:04:53;;;;;;;2.60;0.50;;;;;;;;;;4999140;28;20668;-72
2022/09/08 15:07:26;;;;;;;1.13;0.43;;;;;;;;;;5000715;28;20029;-72
2022/09/08 15:09:56;;;;;;;3.83;0.80;;;;;;;;;;4994384;28;20383;-72
2022/09/08 15:12:25;;;;;;;4.00;0.45;;;;;;;;;;4999503;28;20034;-72
2022/09/08 15:14:56;;;;;;;1.92;0.55;;;;;;;;;;4998995;28;20352;-73
2022/09/08 15:17:28;;;;;;;4.30;0.40;;;;;;;;;;5003238;28;20543;-71